Time;durP1;ratioP1;P1;durP2;ratioP2;P2;SDS_P1;SDS_P2;PMS_P1;PMS_P2;Temp;Humidity;BMP_temperature;BMP_pressure;BME280_temperature;BME280_humidity;BME280_pressure;Samples;Min_cycle;Max_cycle;Signal;HPM_P1;HPM_P2
2024/03/30 00:00:51;;;;;;;19.50;6.43;;;12.00;99.90;;;;;;5116363;28;20399;-73
2024/03/30 00:03:18;;;;;;;19.13;5.87;;;11.90;99.90;;;;;;5116141;28;20925;-73
2024/03/30 00:05:43;;;;;;;17.20;5.40;;;11.80;99.90;;;;;;5116533;28;20771;-75
2024/03/30 00:08:09;;;;;;;29.43;6.40;;;11.80;99.90;;;;;;5116431;28;20424;-74
2024/03/30 00:10:39;;;;;;;21.23;5.27;;;11.80;99.90;;;;;;5116208;28;20153;-75
2024/03/30 00:13:07;;;;;;;22.53;6.00;;;12.00;99.90;;;;;;5115980;28;20425;-74
2024/03/30 00:15:32;;;;;;;20.63;5.47;;;12.10;99.90;;;;;;5115866;28;20926;-74
2024/03/30 00:17:59;;;;;;;18.00;5.37;;;12.10;99.90;;;;;;5116005;28;20498;-74
2024/03/30 00:20:26;;;;;;;20.07;5.63;;;12.10;99.90;;;;;;5115744;28;20164;-73
2024/03/30 00:22:52;;;;;;;28.47;5.80;;;12.00;99.90;;;;;;5115692;28;20410;-74
2024/03/30 00:25:18;;;;;;;21.00;4.90;;;12.00;99.90;;;;;;5115670;28;20407;-74
2024/03/30 00:27:44;;;;;;;21.67;6.00;;;12.00;99.90;;;;;;5115950;28;20662;-73
2024/03/30 00:30:10;;;;;;;22.10;5.43;;;12.10;99.90;;;;;;5115943;28;20197;-74
2024/03/30 00:32:36;;;;;;;30.13;6.47;;;12.20;99.90;;;;;;5115471;28;20410;-72
2024/03/30 00:35:02;;;;;;;13.40;5.47;;;12.30;99.90;;;;;;5115549;28;20441;-75
2024/03/30 00:37:28;;;;;;;22.50;6.73;;;12.30;99.90;;;;;;5115544;28;20632;-74
2024/03/30 00:39:54;;;;;;;15.70;5.47;;;12.30;99.90;;;;;;5114049;28;20424;-73
2024/03/30 00:42:20;;;;;;;25.33;6.23;;;12.10;99.90;;;;;;5115851;28;20186;-74
2024/03/30 00:44:45;;;;;;;21.30;6.30;;;12.00;99.90;;;;;;5116030;28;20164;-74
2024/03/30 00:47:11;;;;;;;16.73;5.90;;;12.00;99.90;;;;;;5115884;28;20644;-74
2024/03/30 00:49:36;;;;;;;23.30;6.60;;;12.00;99.90;;;;;;5116002;28;20185;-74
2024/03/30 00:52:02;;;;;;;18.93;6.17;;;12.00;99.90;;;;;;5116679;28;20207;-74
2024/03/30 00:54:28;;;;;;;24.53;6.20;;;11.90;99.90;;;;;;5118335;28;20202;-74
2024/03/30 00:56:53;;;;;;;33.03;6.63;;;11.90;99.90;;;;;;5119935;28;20166;-74
2024/03/30 00:59:19;;;;;;;13.60;5.67;;;11.90;99.90;;;;;;5119196;28;20664;-74
2024/03/30 01:01:44;;;;;;;23.33;7.20;;;11.90;99.90;;;;;;5116734;28;20168;-74
2024/03/30 01:04:10;;;;;;;23.30;6.60;;;11.80;99.90;;;;;;5115998;28;20180;-73
2024/03/30 01:06:35;;;;;;;18.23;5.40;;;11.80;99.90;;;;;;5113888;28;20661;-74
2024/03/30 01:09:01;;;;;;;25.73;7.77;;;11.80;99.90;;;;;;5114840;28;20212;-73
2024/03/30 01:11:27;;;;;;;28.57;7.30;;;11.70;99.90;;;;;;5113672;28;20221;-74
2024/03/30 01:13:53;;;;;;;23.40;7.27;;;11.70;99.90;;;;;;5114719;28;20450;-73
2024/03/30 01:16:19;;;;;;;29.03;7.00;;;11.70;99.90;;;;;;5113495;28;20164;-74
2024/03/30 01:18:45;;;;;;;25.03;7.40;;;11.70;99.90;;;;;;5114732;28;20612;-74
2024/03/30 01:21:11;;;;;;;28.10;7.37;;;11.80;99.90;;;;;;5114606;28;20421;-74
2024/03/30 01:23:36;;;;;;;28.93;7.50;;;11.80;99.90;;;;;;5114714;28;20247;-74
2024/03/30 01:26:03;;;;;;;29.10;7.13;;;11.70;99.90;;;;;;5114389;28;20403;-74
2024/03/30 01:28:29;;;;;;;35.00;8.33;;;11.80;99.90;;;;;;5114352;28;20209;-74
2024/03/30 01:30:55;;;;;;;30.20;7.80;;;11.80;99.90;;;;;;5113426;28;20449;-74
2024/03/30 01:33:21;;;;;;;28.73;8.23;;;11.70;99.90;;;;;;5114230;28;20166;-74
2024/03/30 01:35:46;;;;;;;31.33;8.83;;;11.70;99.90;;;;;;5114403;28;20161;-74
2024/03/30 01:38:12;;;;;;;40.10;9.20;;;11.80;99.90;;;;;;5114294;28;20222;-75
2024/03/30 01:40:38;;;;;;;20.73;7.80;;;11.80;99.90;;;;;;5114159;28;20157;-75
2024/03/30 01:43:04;;;;;;;25.00;7.90;;;11.90;99.90;;;;;;5114107;28;20160;-73
2024/03/30 01:45:33;;;;;;;38.20;8.23;;;12.00;99.90;;;;;;5114047;28;20501;-73
2024/03/30 01:48:00;;;;;;;36.83;8.87;;;12.10;99.90;;;;;;5112574;28;20414;-73
2024/03/30 01:50:25;;;;;;;31.87;10.00;;;12.10;99.90;;;;;;5114214;28;20473;-74
2024/03/30 01:52:51;;;;;;;44.97;9.40;;;12.00;99.90;;;;;;5114009;28;20872;-73
2024/03/30 01:55:17;;;;;;;39.53;9.73;;;11.90;99.90;;;;;;5113750;28;20279;-73
2024/03/30 01:57:43;;;;;;;44.93;9.97;;;11.80;99.90;;;;;;5113766;28;20525;-74
2024/03/30 02:00:09;;;;;;;38.80;9.93;;;11.70;99.90;;;;;;5113687;28;20505;-73
2024/03/30 02:02:35;;;;;;;38.13;8.53;;;11.70;99.90;;;;;;5113618;28;20397;-73
2024/03/30 02:05:01;;;;;;;38.30;10.20;;;11.70;99.90;;;;;;5112328;28;20727;-73
2024/03/30 02:07:27;;;;;;;42.63;10.33;;;11.70;99.90;;;;;;5113713;28;20776;-74
2024/03/30 02:09:53;;;;;;;42.00;10.10;;;11.70;99.90;;;;;;5111655;28;20463;-74
2024/03/30 02:12:18;;;;;;;35.53;10.80;;;11.80;99.90;;;;;;5112432;28;20172;-74
2024/03/30 02:14:45;;;;;;;38.97;11.10;;;11.80;99.90;;;;;;5113981;28;20775;-74
2024/03/30 02:17:10;;;;;;;52.37;10.53;;;11.90;99.90;;;;;;5114177;28;20186;-74
2024/03/30 02:19:45;;;;;;;25.73;8.20;;;11.90;99.90;;;;;;5114379;28;20419;-74
2024/03/30 02:22:11;;;;;;;47.80;9.87;;;12.10;99.90;;;;;;5113844;28;20533;-74
2024/03/30 02:24:36;;;;;;;37.10;10.77;;;12.20;99.90;;;;;;5113282;28;20412;-74
2024/03/30 02:27:02;;;;;;;45.27;11.00;;;12.40;99.90;;;;;;5113329;28;20287;-74
2024/03/30 02:29:32;;;;;;;39.60;9.60;;;12.40;99.90;;;;;;5113238;28;20192;-75
2024/03/30 02:31:58;;;;;;;42.40;9.93;;;12.40;99.90;;;;;;5113089;28;20517;-75
2024/03/30 02:34:23;;;;;;;37.43;8.00;;;12.40;99.90;;;;;;5113210;28;20516;-74
2024/03/30 02:36:49;;;;;;;39.00;9.57;;;12.50;99.90;;;;;;5113387;28;20163;-73
2024/03/30 02:39:14;;;;;;;38.67;9.70;;;12.60;99.90;;;;;;5113238;28;20178;-73
2024/03/30 02:41:40;;;;;;;49.97;10.47;;;12.60;99.90;;;;;;5113556;28;20162;-74
2024/03/30 02:44:05;;;;;;;39.97;8.90;;;12.50;99.90;;;;;;5113151;28;20170;-73
2024/03/30 02:46:31;;;;;;;45.70;9.37;;;12.60;99.90;;;;;;5113080;28;20639;-73
2024/03/30 02:48:56;;;;;;;36.50;9.63;;;12.50;99.90;;;;;;5113008;28;20197;-73
2024/03/30 02:51:22;;;;;;;39.70;8.80;;;12.40;99.90;;;;;;5112971;28;20166;-74
2024/03/30 02:53:47;;;;;;;41.37;9.90;;;12.50;99.90;;;;;;5112809;28;20579;-74
2024/03/30 02:56:13;;;;;;;38.03;9.80;;;12.50;99.90;;;;;;5112818;28;20702;-73
2024/03/30 02:58:39;;;;;;;39.50;8.03;;;12.50;99.90;;;;;;5112731;28;20647;-73
2024/03/30 03:01:04;;;;;;;34.97;8.60;;;12.40;99.90;;;;;;5111490;28;20537;-74
2024/03/30 03:03:30;;;;;;;38.60;7.50;;;12.50;99.90;;;;;;5112834;28;20656;-74
2024/03/30 03:05:56;;;;;;;36.13;8.10;;;12.50;99.90;;;;;;5112673;28;20407;-74
2024/03/30 03:08:27;;;;;;;35.83;8.50;;;12.60;99.90;;;;;;5112385;28;20622;-74
2024/03/30 03:10:53;;;;;;;46.43;10.37;;;12.60;99.90;;;;;;5112904;28;20395;-74
2024/03/30 03:13:19;;;;;;;39.87;8.70;;;12.60;99.90;;;;;;5112666;28;20495;-74
2024/03/30 03:15:44;;;;;;;45.20;10.40;;;12.70;99.90;;;;;;5112613;28;20500;-74
2024/03/30 03:18:10;;;;;;;34.17;7.63;;;12.70;99.90;;;;;;5112609;28;20202;-73
2024/03/30 03:20:35;;;;;;;31.60;7.77;;;12.70;99.90;;;;;;5112830;28;20172;-74
2024/03/30 03:23:01;;;;;;;32.70;9.43;;;12.90;99.90;;;;;;5116804;28;20178;-73
2024/03/30 03:25:26;;;;;;;30.63;9.70;;;12.90;99.90;;;;;;5116801;28;20537;-74
2024/03/30 03:27:52;;;;;;;37.70;8.93;;;13.00;99.90;;;;;;5116762;28;20168;-73
2024/03/30 03:30:18;;;;;;;24.77;8.03;;;13.20;99.90;;;;;;5116915;28;20727;-74
2024/03/30 03:32:45;;;;;;;41.23;8.60;;;13.20;99.90;;;;;;5116677;28;20175;-74
2024/03/30 03:35:11;;;;;;;32.30;7.93;;;13.20;99.90;;;;;;5115195;28;20190;-74
2024/03/30 03:37:36;;;;;;;36.23;8.07;;;13.30;99.90;;;;;;5116731;28;20413;-74
2024/03/30 03:40:02;;;;;;;39.33;8.70;;;13.30;99.90;;;;;;5116561;28;20190;-74
2024/03/30 03:42:28;;;;;;;30.93;8.53;;;13.40;99.90;;;;;;5116416;28;20172;-74
2024/03/30 03:44:53;;;;;;;38.63;7.13;;;13.50;99.90;;;;;;5116284;28;20183;-74
2024/03/30 03:47:19;;;;;;;29.53;9.37;;;13.60;99.90;;;;;;5116328;28;20184;-73
2024/03/30 03:49:45;;;;;;;24.10;7.40;;;13.60;99.90;;;;;;5116195;28;20189;-73
2024/03/30 03:52:10;;;;;;;33.80;7.70;;;13.70;99.90;;;;;;5116224;28;20227;-75
2024/03/30 03:54:36;;;;;;;26.50;7.20;;;13.50;99.90;;;;;;5116311;28;20686;-73
2024/03/30 03:57:02;;;;;;;24.87;7.00;;;13.40;99.90;;;;;;5116090;28;20172;-74
2024/03/30 03:59:28;;;;;;;27.17;8.07;;;13.30;99.90;;;;;;5116325;28;20449;-74
2024/03/30 04:01:53;;;;;;;34.13;6.93;;;13.10;99.90;;;;;;5116072;28;20837;-74
2024/03/30 04:04:19;;;;;;;31.00;7.50;;;13.20;99.90;;;;;;5116285;28;20528;-74
2024/03/30 04:06:45;;;;;;;29.33;7.40;;;13.10;99.90;;;;;;5116051;28;20173;-73
2024/03/30 04:09:10;;;;;;;26.00;6.70;;;13.10;99.90;;;;;;5115650;28;20680;-74
2024/03/30 04:11:36;;;;;;;30.53;6.57;;;13.10;99.90;;;;;;5116036;27;20187;-73
2024/03/30 04:14:02;;;;;;;32.77;6.60;;;13.00;99.90;;;;;;5115791;28;20193;-74
2024/03/30 04:16:28;;;;;;;33.00;7.10;;;13.00;99.90;;;;;;5115766;28;20407;-74
2024/03/30 04:18:53;;;;;;;17.80;5.70;;;12.80;99.90;;;;;;5115722;28;20200;-74
2024/03/30 04:21:19;;;;;;;31.27;6.67;;;12.70;99.90;;;;;;5114444;28;20173;-74
2024/03/30 04:23:45;;;;;;;29.47;6.23;;;12.60;99.90;;;;;;5115788;28;20170;-74
2024/03/30 04:26:14;;;;;;;26.73;6.27;;;12.50;99.90;;;;;;5115865;28;20648;-74
2024/03/30 04:28:40;;;;;;;26.23;5.90;;;12.40;99.90;;;;;;5115546;28;20209;-74
2024/03/30 04:31:06;;;;;;;38.17;6.60;;;12.30;99.90;;;;;;5116142;27;20493;-74
2024/03/30 04:33:33;;;;;;;28.57;7.60;;;12.30;99.90;;;;;;5113997;28;20446;-74
2024/03/30 04:36:03;;;;;;;27.40;5.80;;;12.20;99.90;;;;;;5115938;28;20402;-74
2024/03/30 04:38:29;;;;;;;29.37;5.67;;;12.30;99.90;;;;;;5116124;28;20454;-74
2024/03/30 04:40:57;;;;;;;23.53;5.97;;;12.30;99.90;;;;;;5115717;28;20405;-74
2024/03/30 04:43:23;;;;;;;23.23;5.03;;;12.10;99.90;;;;;;5115805;28;20920;-75
2024/03/30 04:45:48;;;;;;;22.23;6.07;;;12.10;99.90;;;;;;5115387;28;20396;-74
2024/03/30 04:48:15;;;;;;;20.73;6.07;;;12.00;99.90;;;;;;5115344;28;20685;-74
2024/03/30 04:50:40;;;;;;;26.70;6.73;;;11.90;99.90;;;;;;5115570;28;20253;-74
2024/03/30 04:53:06;;;;;;;32.23;5.50;;;11.90;99.90;;;;;;5115109;28;20432;-74
2024/03/30 04:55:31;;;;;;;22.27;5.30;;;11.80;99.90;;;;;;5114908;28;20197;-74
2024/03/30 04:57:57;;;;;;;16.20;5.03;;;11.90;99.90;;;;;;5114920;28;20162;-74
2024/03/30 05:00:22;;;;;;;14.57;4.70;;;12.00;99.90;;;;;;5115090;28;20249;-73
2024/03/30 05:02:48;;;;;;;22.53;4.30;;;12.00;99.90;;;;;;5114825;28;20252;-74
2024/03/30 05:05:14;;;;;;;18.00;5.03;;;12.10;99.90;;;;;;5115173;28;20174;-73
2024/03/30 05:07:39;;;;;;;25.90;5.13;;;12.20;99.90;;;;;;5114721;28;20198;-73
2024/03/30 05:10:05;;;;;;;21.13;5.10;;;12.10;99.90;;;;;;5114561;28;20241;-73
2024/03/30 05:12:31;;;;;;;17.93;4.50;;;12.10;99.90;;;;;;5114780;28;20193;-73
2024/03/30 05:14:56;;;;;;;13.73;4.40;;;12.10;99.90;;;;;;5114667;28;20516;-73
2024/03/30 05:17:22;;;;;;;22.53;5.00;;;12.20;99.90;;;;;;5114650;28;20531;-72
2024/03/30 05:22:32;;;;;;;19.33;5.23;;;12.20;99.90;;;;;;5114748;28;20209;-73
2024/03/30 05:24:57;;;;;;;17.80;4.87;;;12.20;99.90;;;;;;5114522;28;20396;-73
2024/03/30 05:27:23;;;;;;;20.63;4.90;;;12.20;99.90;;;;;;5114467;28;20168;-73
2024/03/30 05:29:48;;;;;;;24.93;4.23;;;12.30;99.90;;;;;;5113041;28;20220;-73
2024/03/30 05:32:15;;;;;;;15.23;4.77;;;12.30;99.90;;;;;;5114421;28;20169;-73
2024/03/30 05:34:40;;;;;;;17.13;5.40;;;12.40;99.90;;;;;;5114263;28;20283;-73
2024/03/30 05:37:06;;;;;;;17.43;5.20;;;12.30;99.90;;;;;;5114091;28;20467;-74
2024/03/30 05:39:31;;;;;;;16.70;4.37;;;12.40;99.90;;;;;;5114171;28;20186;-73
2024/03/30 05:41:57;;;;;;;18.40;4.43;;;12.50;99.90;;;;;;5112961;28;20164;-72
2024/03/30 05:44:22;;;;;;;20.77;5.30;;;12.50;99.90;;;;;;5113280;28;20537;-74
2024/03/30 05:46:48;;;;;;;16.97;4.40;;;12.50;99.90;;;;;;5114303;28;20652;-75
2024/03/30 05:49:13;;;;;;;17.70;4.10;;;12.50;99.90;;;;;;5113951;28;20695;-73
2024/03/30 05:51:39;;;;;;;23.03;4.87;;;12.60;99.90;;;;;;5113996;28;20220;-74
2024/03/30 05:54:04;;;;;;;17.00;4.53;;;12.70;99.90;;;;;;5113814;28;20214;-75
2024/03/30 05:56:30;;;;;;;11.00;4.10;;;12.90;99.90;;;;;;5113838;28;20650;-75
2024/03/30 05:58:55;;;;;;;15.73;3.87;;;12.90;99.90;;;;;;5113708;28;20218;-74
2024/03/30 06:01:21;;;;;;;17.47;4.17;;;13.00;99.90;;;;;;5113787;28;20229;-74
2024/03/30 06:03:47;;;;;;;23.50;4.17;;;13.00;99.90;;;;;;5113734;28;20178;-74
2024/03/30 06:06:12;;;;;;;23.30;4.20;;;13.20;99.90;;;;;;5113676;28;20168;-73
2024/03/30 06:08:38;;;;;;;20.53;4.80;;;13.30;99.90;;;;;;5113519;28;20686;-73
2024/03/30 06:11:03;;;;;;;18.80;4.50;;;13.40;99.90;;;;;;5113572;28;20161;-74
2024/03/30 06:13:29;;;;;;;18.90;5.27;;;13.50;99.90;;;;;;5113768;28;20233;-73
2024/03/30 06:16:02;;;;;;;13.40;4.20;;;13.70;99.90;;;;;;5113801;28;20180;-74
2024/03/30 06:18:28;;;;;;;21.90;4.80;;;13.90;99.90;;;;;;5113394;28;20179;-73
2024/03/30 06:20:53;;;;;;;24.33;4.20;;;14.10;99.90;;;;;;5113585;28;20812;-73
2024/03/30 06:23:19;;;;;;;21.30;5.30;;;14.20;99.90;;;;;;5113499;28;20163;-74
2024/03/30 06:25:44;;;;;;;23.70;5.27;;;14.40;99.90;;;;;;5113437;28;20166;-73
2024/03/30 06:28:10;;;;;;;20.20;5.23;;;14.60;99.90;;;;;;5111812;28;20168;-75
2024/03/30 06:30:36;;;;;;;18.80;4.30;;;14.70;99.90;;;;;;5113297;28;20179;-74
2024/03/30 06:33:01;;;;;;;18.33;5.10;;;14.80;99.90;;;;;;5113149;28;20163;-74
2024/03/30 06:35:28;;;;;;;21.80;4.77;;;14.90;99.90;;;;;;5112925;28;20525;-73
2024/03/30 06:37:54;;;;;;;22.70;5.50;;;15.10;99.90;;;;;;5112977;28;20533;-74
2024/03/30 06:45:48;;;;;;;24.53;5.67;;;15.90;98.00;;;;;;5113192;28;20507;-74
2024/03/30 06:48:13;;;;;;;31.10;5.97;;;16.00;96.40;;;;;;5113088;28;20445;-74
2024/03/30 06:50:39;;;;;;;23.50;5.93;;;16.30;94.90;;;;;;5111661;28;20176;-74
2024/03/30 06:53:04;;;;;;;31.13;6.93;;;16.50;94.10;;;;;;5112863;28;20210;-74
2024/03/30 06:55:30;;;;;;;21.30;5.30;;;16.60;92.60;;;;;;5112468;28;20184;-74
2024/03/30 06:57:55;;;;;;;16.43;4.40;;;16.80;92.00;;;;;;5112773;28;20248;-74
2024/03/30 07:00:21;;;;;;;25.10;5.57;;;16.80;91.80;;;;;;5112678;28;20211;-75
2024/03/30 07:02:46;;;;;;;19.40;5.80;;;16.90;90.70;;;;;;5112844;28;20164;-75
2024/03/30 07:05:12;;;;;;;20.80;5.70;;;17.00;90.80;;;;;;5112650;28;20240;-74
2024/03/30 07:07:37;;;;;;;17.20;4.83;;;17.00;90.80;;;;;;5112427;28;20195;-73
2024/03/30 07:10:03;;;;;;;30.50;6.67;;;17.00;88.80;;;;;;5112428;28;20293;-74
2024/03/30 07:12:29;;;;;;;26.30;5.43;;;17.00;89.80;;;;;;5112375;28;20179;-74
2024/03/30 07:14:55;;;;;;;24.47;5.63;;;16.90;87.10;;;;;;5112410;28;20623;-74
2024/03/30 07:17:20;;;;;;;21.60;5.73;;;16.90;87.00;;;;;;5112871;28;20415;-73
2024/03/30 07:19:46;;;;;;;24.97;6.30;;;17.00;87.20;;;;;;5112282;28;20885;-73
2024/03/30 07:22:11;;;;;;;25.17;6.23;;;17.00;88.20;;;;;;5112406;28;20168;-74
2024/03/30 07:24:37;;;;;;;28.17;5.70;;;17.00;85.40;;;;;;5111175;28;20246;-73
2024/03/30 07:27:03;;;;;;;33.57;5.57;;;17.10;86.50;;;;;;5112420;28;20161;-74
2024/03/30 07:29:28;;;;;;;23.40;5.97;;;17.10;87.40;;;;;;5112328;28;20362;-73
2024/03/30 07:31:56;;;;;;;25.60;5.77;;;16.90;85.00;;;;;;5112305;28;20198;-74
2024/03/30 07:34:21;;;;;;;37.13;6.03;;;17.00;84.40;;;;;;5112314;28;20207;-74
2024/03/30 07:36:47;;;;;;;37.23;6.47;;;17.00;84.80;;;;;;5112258;28;20398;-74
2024/03/30 07:39:12;;;;;;;28.30;6.00;;;17.20;86.50;;;;;;5112165;28;20189;-74
2024/03/30 07:41:38;;;;;;;24.70;4.97;;;17.20;85.20;;;;;;5111044;28;20206;-73
2024/03/30 07:44:04;;;;;;;25.30;5.60;;;17.20;87.90;;;;;;5112123;28;20635;-73
2024/03/30 07:46:29;;;;;;;23.87;5.70;;;17.10;87.80;;;;;;5112414;28;20692;-72
2024/03/30 07:48:55;;;;;;;22.30;4.90;;;17.10;90.40;;;;;;5112122;28;20535;-74
2024/03/30 07:51:22;;;;;;;22.90;5.83;;;17.20;90.90;;;;;;5112162;28;20169;-73
2024/03/30 07:53:47;;;;;;;29.83;5.97;;;17.00;90.90;;;;;;5112163;28;20189;-74
2024/03/30 07:56:13;;;;;;;19.57;5.37;;;17.00;92.20;;;;;;5112037;28;20950;-74
2024/03/30 07:58:38;;;;;;;27.77;6.80;;;16.90;92.70;;;;;;5112106;28;20682;-74
2024/03/30 08:01:07;;;;;;;25.53;6.93;;;16.80;94.00;;;;;;5112104;28;20212;-74
2024/03/30 08:03:33;;;;;;;26.67;6.27;;;16.70;94.90;;;;;;5112094;28;20236;-74
2024/03/30 08:05:59;;;;;;;22.83;6.97;;;16.70;95.80;;;;;;5112220;28;20409;-73
2024/03/30 08:08:25;;;;;;;21.37;5.80;;;16.60;96.70;;;;;;5115685;28;20200;-73
2024/03/30 08:10:50;;;;;;;31.87;7.10;;;16.50;97.20;;;;;;5116340;28;20733;-74
2024/03/30 08:13:17;;;;;;;19.87;5.97;;;16.50;97.60;;;;;;5116377;28;20164;-73
2024/03/30 08:15:44;;;;;;;20.27;6.00;;;16.30;98.40;;;;;;5116124;28;20173;-73
2024/03/30 08:18:10;;;;;;;25.83;5.50;;;16.20;98.70;;;;;;5116265;27;20390;-73
2024/03/30 08:20:37;;;;;;;25.83;6.83;;;16.20;99.30;;;;;;5115565;28;20470;-72
2024/03/30 08:23:02;;;;;;;24.77;6.07;;;16.20;99.80;;;;;;5115646;28;20260;-73
2024/03/30 08:25:28;;;;;;;31.50;6.53;;;16.20;99.60;;;;;;5115265;28;20973;-74
2024/03/30 08:27:53;;;;;;;28.67;5.60;;;16.20;99.60;;;;;;5115314;28;20511;-74
2024/03/30 08:30:19;;;;;;;18.53;5.77;;;16.30;99.90;;;;;;5115283;28;20284;-74
2024/03/30 08:32:46;;;;;;;18.03;5.13;;;16.20;99.90;;;;;;5115386;28;20168;-74
2024/03/30 08:35:11;;;;;;;24.40;6.17;;;16.10;99.90;;;;;;5115189;28;20655;-74
2024/03/30 08:37:37;;;;;;;28.03;6.67;;;15.90;99.90;;;;;;5115260;28;20397;-73
2024/03/30 08:40:03;;;;;;;25.63;5.80;;;15.90;99.90;;;;;;5115170;28;20180;-74
2024/03/30 08:42:29;;;;;;;19.03;5.83;;;15.90;99.90;;;;;;5115565;28;20164;-74
2024/03/30 08:44:54;;;;;;;24.47;6.07;;;15.80;99.90;;;;;;5115123;28;20173;-73
2024/03/30 08:47:20;;;;;;;26.00;6.37;;;15.90;99.90;;;;;;5116880;28;20172;-74
2024/03/30 08:49:45;;;;;;;24.70;5.80;;;15.90;99.90;;;;;;5115525;28;20214;-73
2024/03/30 08:52:11;;;;;;;29.53;6.07;;;15.70;99.90;;;;;;5115027;28;20654;-73
2024/03/30 08:54:36;;;;;;;27.40;6.30;;;15.60;99.90;;;;;;5114783;28;20190;-72
2024/03/30 08:57:02;;;;;;;22.63;6.90;;;15.50;99.90;;;;;;5114989;27;20166;-74
2024/03/30 08:59:27;;;;;;;26.80;6.43;;;15.50;99.90;;;;;;5114767;28;20195;-73
2024/03/30 09:01:54;;;;;;;25.50;5.60;;;15.60;99.90;;;;;;5113373;28;20207;-73
2024/03/30 09:04:19;;;;;;;26.10;6.70;;;15.50;99.90;;;;;;5115326;28;20173;-74
2024/03/30 09:06:45;;;;;;;28.30;6.17;;;15.40;99.90;;;;;;5114856;28;20442;-74
2024/03/30 09:09:11;;;;;;;21.63;6.73;;;15.40;99.90;;;;;;5114662;28;20705;-74
2024/03/30 09:11:37;;;;;;;34.77;7.30;;;15.40;99.90;;;;;;5114643;28;20270;-74
2024/03/30 09:14:02;;;;;;;33.33;7.00;;;15.50;99.90;;;;;;5114626;28;20494;-75
2024/03/30 09:16:28;;;;;;;27.13;6.40;;;15.50;99.90;;;;;;5114443;28;20642;-75
2024/03/30 09:18:54;;;;;;;25.30;5.70;;;15.60;99.90;;;;;;5114527;28;20548;-74
2024/03/30 09:21:19;;;;;;;25.80;6.10;;;15.70;99.90;;;;;;5115064;28;20165;-74
2024/03/30 09:23:45;;;;;;;21.87;5.00;;;15.80;99.90;;;;;;5114488;28;20739;-75
2024/03/30 09:26:10;;;;;;;22.17;6.17;;;16.00;99.90;;;;;;5114436;28;20240;-74
2024/03/30 09:28:36;;;;;;;25.03;5.90;;;16.10;99.90;;;;;;5114292;28;20185;-75
2024/03/30 09:31:02;;;;;;;24.33;5.77;;;16.10;99.90;;;;;;5114336;28;20205;-74
2024/03/30 09:33:27;;;;;;;20.87;6.37;;;16.30;99.90;;;;;;5114272;28;20189;-75
2024/03/30 09:35:55;;;;;;;23.70;5.87;;;16.40;99.90;;;;;;5114322;28;20433;-73
2024/03/30 09:38:20;;;;;;;30.00;7.33;;;16.40;99.90;;;;;;5114096;28;20210;-74
2024/03/30 09:40:54;;;;;;;24.00;6.20;;;16.50;99.90;;;;;;5113876;28;20406;-74
2024/03/30 09:43:20;;;;;;;27.40;6.63;;;16.50;99.90;;;;;;5114002;28;20228;-75
2024/03/30 09:45:48;;;;;;;29.00;6.40;;;16.20;99.90;;;;;;5113829;28;20410;-74
2024/03/30 09:48:15;;;;;;;27.63;7.27;;;16.00;99.90;;;;;;5113784;28;20401;-73
2024/03/30 09:50:41;;;;;;;19.60;6.77;;;16.00;99.90;;;;;;5113688;28;20398;-73
2024/03/30 09:53:09;;;;;;;29.83;6.97;;;16.00;99.90;;;;;;5113747;28;20406;-74
2024/03/30 09:55:37;;;;;;;30.37;7.20;;;16.00;99.90;;;;;;5113610;28;20828;-75
2024/03/30 09:58:05;;;;;;;28.83;6.53;;;16.00;99.90;;;;;;5113879;28;20409;-75
2024/03/30 10:00:31;;;;;;;22.20;6.27;;;15.90;99.90;;;;;;5113603;28;20913;-75
2024/03/30 10:02:56;;;;;;;27.73;6.97;;;15.90;99.90;;;;;;5112246;28;20424;-74
2024/03/30 10:05:22;;;;;;;21.70;5.70;;;15.90;99.90;;;;;;5113639;28;20168;-74
2024/03/30 10:07:59;;;;;;;22.67;6.03;;;15.90;99.90;;;;;;5113642;28;20652;-74
2024/03/30 10:10:26;;;;;;;26.23;6.60;;;16.00;99.90;;;;;;5113502;28;20658;-74
2024/03/30 10:12:57;;;;;;;35.20;6.63;;;16.10;99.90;;;;;;5113411;28;20413;-73
2024/03/30 10:15:43;;;;;;;27.20;7.37;;;16.20;99.90;;;;;;5113506;28;20652;-74
2024/03/30 10:18:08;;;;;;;25.77;7.60;;;16.30;99.90;;;;;;5113243;28;20477;-74
2024/03/30 10:20:35;;;;;;;23.33;7.23;;;16.50;99.90;;;;;;5113602;28;20490;-74
2024/03/30 10:23:00;;;;;;;30.73;7.00;;;16.70;99.90;;;;;;5113207;28;20410;-74
2024/03/30 10:25:26;;;;;;;33.90;6.93;;;16.80;99.90;;;;;;5113113;28;20406;-75
2024/03/30 10:27:52;;;;;;;26.53;6.93;;;16.80;99.90;;;;;;5111794;28;20173;-74
2024/03/30 10:30:18;;;;;;;22.00;6.80;;;17.00;99.90;;;;;;5112294;28;20206;-74
2024/03/30 10:32:46;;;;;;;29.87;7.50;;;17.00;99.90;;;;;;5112885;28;20192;-74
2024/03/30 10:35:19;;;;;;;27.43;6.90;;;17.10;99.90;;;;;;5112958;28;20241;-74
2024/03/30 10:37:46;;;;;;;29.40;6.03;;;17.10;99.90;;;;;;5112884;28;20379;-74
2024/03/30 10:40:13;;;;;;;27.67;7.00;;;17.00;99.90;;;;;;5112787;28;20418;-73
2024/03/30 10:42:39;;;;;;;24.90;7.40;;;16.90;99.90;;;;;;5113239;28;20406;-74
2024/03/30 10:45:06;;;;;;;28.90;7.20;;;17.10;99.90;;;;;;5112843;28;20406;-75
2024/03/30 10:47:34;;;;;;;38.10;7.00;;;17.20;99.90;;;;;;5112811;28;20425;-75
2024/03/30 10:50:00;;;;;;;23.70;6.67;;;17.20;99.90;;;;;;5113018;28;20806;-73
2024/03/30 10:52:26;;;;;;;28.47;6.80;;;17.30;99.90;;;;;;5111599;28;20423;-74
2024/03/30 10:54:55;;;;;;;27.40;6.60;;;17.30;99.90;;;;;;5112947;28;20453;-75
2024/03/30 10:57:25;;;;;;;27.03;6.07;;;17.30;99.90;;;;;;5113175;28;20403;-75
2024/03/30 10:59:52;;;;;;;27.23;6.50;;;17.20;99.90;;;;;;5112861;28;20434;-75
2024/03/30 11:02:23;;;;;;;23.17;6.90;;;17.20;99.90;;;;;;5112890;28;20406;-74
2024/03/30 11:04:52;;;;;;;24.00;7.33;;;17.30;99.90;;;;;;5112992;28;20401;-75
2024/03/30 11:07:18;;;;;;;28.87;6.57;;;17.50;99.90;;;;;;5112874;28;20406;-75
2024/03/30 11:09:44;;;;;;;26.47;7.27;;;17.60;99.90;;;;;;5112697;28;20496;-74
2024/03/30 11:12:11;;;;;;;23.50;6.57;;;17.80;99.90;;;;;;5112762;28;20569;-75
2024/03/30 11:14:37;;;;;;;21.13;6.90;;;17.90;99.90;;;;;;5112492;28;20445;-74
2024/03/30 11:17:22;;;;;;;29.77;6.93;;;17.90;99.90;;;;;;5112566;28;20747;-75
2024/03/30 11:19:53;;;;;;;33.23;8.67;;;18.00;99.90;;;;;;5112481;28;20457;-75
2024/03/30 11:23:08;;;;;;;25.87;7.17;;;18.10;99.90;;;;;;5112825;28;20494;-75
2024/03/30 11:25:39;;;;;;;26.90;7.70;;;18.20;99.90;;;;;;5090099;28;20896;-75
2024/03/30 11:28:07;;;;;;;25.03;7.00;;;18.00;99.90;;;;;;5108214;28;20508;-75
2024/03/30 11:30:32;;;;;;;33.43;8.30;;;18.20;99.90;;;;;;5112544;28;20409;-75
2024/03/30 11:33:06;;;;;;;26.83;6.87;;;18.50;99.90;;;;;;5112521;28;20402;-75
2024/03/30 11:35:38;;;;;;;32.70;9.10;;;18.70;99.90;;;;;;5112287;28;20210;-76
2024/03/30 11:38:06;;;;;;;28.97;7.97;;;18.90;99.90;;;;;;5112362;28;20413;-75
2024/03/30 11:40:36;;;;;;;30.00;8.83;;;19.00;99.90;;;;;;5112340;28;20402;-75
2024/03/30 11:43:37;;;;;;;37.17;8.40;;;19.20;99.90;;;;;;5115807;28;20819;-75
2024/03/30 11:46:04;;;;;;;29.20;8.23;;;19.20;99.90;;;;;;5117887;28;20573;-76
2024/03/30 11:48:30;;;;;;;33.90;8.70;;;19.20;97.40;;;;;;5116792;28;20430;-75
2024/03/30 11:50:56;;;;;;;28.00;8.70;;;19.20;97.00;;;;;;5117287;28;20501;-74
2024/03/30 11:53:21;;;;;;;29.33;8.93;;;19.30;98.10;;;;;;5116845;28;20172;-74
2024/03/30 11:55:53;;;;;;;25.17;7.93;;;19.30;98.10;;;;;;5117363;28;20195;-75
2024/03/30 11:58:23;;;;;;;22.80;6.80;;;19.40;98.50;;;;;;5116487;28;20188;-75
2024/03/30 12:00:54;;;;;;;27.53;7.27;;;19.40;97.70;;;;;;5116396;28;20410;-74
2024/03/30 12:03:20;;;;;;;27.23;8.20;;;19.30;99.30;;;;;;5114417;28;20414;-75
2024/03/30 12:05:52;;;;;;;23.70;7.50;;;19.40;99.90;;;;;;5116037;28;20406;-74
2024/03/30 12:08:22;;;;;;;32.23;8.93;;;19.40;99.90;;;;;;5115833;28;20426;-75
2024/03/30 12:10:58;;;;;;;26.87;7.97;;;19.50;99.90;;;;;;5115675;28;20402;-75
2024/03/30 12:13:38;;;;;;;23.63;7.50;;;19.50;99.90;;;;;;5115887;28;20433;-75
2024/03/30 12:16:04;;;;;;;24.73;8.37;;;19.50;99.90;;;;;;5115869;28;20386;-75
2024/03/30 12:18:30;;;;;;;21.73;7.57;;;19.30;99.90;;;;;;5115429;28;20444;-75
2024/03/30 12:20:56;;;;;;;25.40;8.33;;;19.30;99.90;;;;;;5115620;28;20402;-74
2024/03/30 12:23:23;;;;;;;22.43;7.37;;;19.30;99.90;;;;;;5115705;28;20402;-74
2024/03/30 12:25:50;;;;;;;30.63;8.30;;;19.40;99.90;;;;;;5115728;28;20191;-74
2024/03/30 12:28:17;;;;;;;20.30;8.10;;;19.40;99.90;;;;;;5115298;28;20398;-74
2024/03/30 12:30:45;;;;;;;27.93;8.70;;;19.40;99.90;;;;;;5115612;28;20403;-75
2024/03/30 12:33:12;;;;;;;24.33;7.10;;;19.40;99.90;;;;;;5115672;28;20846;-74
2024/03/30 12:35:38;;;;;;;25.93;7.67;;;19.30;99.90;;;;;;5113635;28;20476;-75
2024/03/30 12:38:04;;;;;;;25.70;8.50;;;19.30;99.90;;;;;;5114112;28;21007;-75
2024/03/30 12:40:35;;;;;;;23.73;7.37;;;19.30;99.90;;;;;;5115500;28;20628;-75